EDDSLQSA

Guest
Details From EDDS - Stuttgart
To LQSA - Sarajevo
Flight Number -
Tags Generated
Created
Modified
Stats Distance 478 nm / 884 km
Max Altitude 0 ft / 0 m
Waypoints 4
Social Downloads 8
Likes 0
Share VATSIM

Download

Looking for another format? Having issues loading an existing format? Contact us
Advertisement - Login to hide

Notes

Generated

Route

EDDS ARNOS KG LQSA

ID Type Via Altitude Latitude Longitude Leg Dist Tot Dist Heading (true) Name
O EDDS APT - 0 ft / 0 m 48.68573˚ 9.20013˚ - 0 nm - -
ARNOS FIX - 0 ft / 0 m 46.54126˚ 13.56931˚ 218 nm 218 nm 124° / 128° -
KG NDB - 0 ft / 0 m 43.88141˚ 18.17701˚ 251 nm 470 nm 128° / 131° KOBILJACA NDB
O LQSA APT - 0 ft / 0 m 43.82997˚ 18.31714˚ 6 nm 477 nm 117° / 117° -

Altitude Profile

Advertisement - Login to hide

Weather


0- 5 10 15 20 25 30 35+ Temperature / ° C

Clouds and Precipitation
Forecast for 2017-12-18 06:00 UTC. Updated 9 minutes ago

Ground ~20,000 ft ~40,000 ft Winds

EDDS

Details ICAO EDDS (STR)
Name Stuttgart
Region Germany - Civil
Timezone Europe/Berlin (UTC+1.0)
Stats Elevation 1,273 ft / 388 m (AMSL)
Location 48.689876° 9.221962°
Runways 1
Magnetic Variation 2.524° E

METAR

EDDS 180320Z 18005KT 150V210 9999 FEW043 OVC075 00/M04 Q1021

Decode

TAF

TAF TAF EDDS 172300Z 1800/1824 24007KT 9999 BKN035 BECMG 1804/1806 4000 -SN BKN012 TEMPO 1805/1812 2500 SN OVC008 PROB30 TEMPO 1805/1808 0500 +SN BKN003 BECMG 1810/1813 12004KT 6000 BKN020

Decode

Departure Runways

ID Width Length Bearing (true) Bearing (mag) Surface Threshold Offset Overrun Length
07 148 ft / 45 m 10,950 ft / 3,337 m 73.96° 71.44° Concrete 981 ft / 299 m 157 ft / 48 m
25 148 ft / 45 m 10,950 ft / 3,337 m 253.99° 251.47° Concrete 0 ft / 0 m 157 ft / 48 m

LQSA

Details ICAO LQSA (SJJ)
Name Sarajevo
Region Bosnia and Herzegovinia
Timezone Europe/Sarajevo (UTC+1.0)
Stats Elevation 1,708 ft / 521 m (AMSL)
Location 43.824597° 18.331500°
Runways 1
Magnetic Variation 4.223° E

METAR

LQSA 180300Z 30005KT 7000 -SN SCT030 BKN045 M00/M02 Q1019

Decode

TAF

Not found

Destination Runways

ID Width Length Bearing (true) Bearing (mag) Surface Threshold Offset Overrun Length
12 150 ft / 46 m 8,519 ft / 2,597 m 117.41° 113.19° Asphalt 333 ft / 102 m 0 ft / 0 m
30 150 ft / 46 m 8,519 ft / 2,597 m 297.43° 293.21° Asphalt 666 ft / 203 m 0 ft / 0 m

Approach Navaids

Runway Type Ident Frequency Range Bearing (true) Bearing (mag) Slope Elevation
12 Localiser BHS 110.70 MHz 25 nm / 46 km 117.00° 112.78° - 1,709 ft / 521 m (AMSL)
12 Glidescope BHS 110.70 MHz 25 nm / 46 km 117.00° 112.78° 3.20° 1,705 ft / 520 m (AMSL)
12 DME BHS 110.70 MHz 25 nm / 46 km - - - 1,705 ft / 520 m (AMSL)

Popular Alternatives